createdAt,value
2023-04-05T00:00:09.906Z,5.47
2023-04-05T00:02:40.653Z,5.63
2023-04-05T00:05:09.766Z,7.73
2023-04-05T00:07:38.393Z,6.17
2023-04-05T00:10:08.190Z,5.23
2023-04-05T00:12:36.061Z,6.50
2023-04-05T00:15:04.643Z,5.30
2023-04-05T00:17:32.954Z,8.07
2023-04-05T00:20:01.781Z,5.10
2023-04-05T00:22:35.860Z,7.50
2023-04-05T00:25:03.489Z,6.43
2023-04-05T00:27:32.560Z,7.93
2023-04-05T00:30:01.010Z,7.30
2023-04-05T00:32:28.766Z,10.33
2023-04-05T00:34:56.447Z,12.10
2023-04-05T00:37:24.261Z,13.37
2023-04-05T00:39:53.740Z,16.30
2023-04-05T00:42:21.477Z,12.13
2023-04-05T00:44:50.582Z,12.53
2023-04-05T00:47:18.354Z,15.13
2023-04-05T00:49:46.826Z,10.20
2023-04-05T00:52:16.220Z,11.23
2023-04-05T00:54:44.551Z,9.97
2023-04-05T00:57:12.529Z,12.13
2023-04-05T00:59:40.279Z,12.43
2023-04-05T01:02:17.972Z,11.60
2023-04-05T01:04:54.345Z,12.07
2023-04-05T01:07:27.218Z,9.50
2023-04-05T01:09:57.777Z,12.27
2023-04-05T01:12:29.412Z,10.40
2023-04-05T01:14:57.207Z,7.97
2023-04-05T01:17:29.157Z,11.57
2023-04-05T01:20:00.284Z,9.53
2023-04-05T01:22:50.335Z,11.97
2023-04-05T01:25:37.785Z,15.97
2023-04-05T01:28:25.200Z,12.57
2023-04-05T01:31:03.303Z,8.07
2023-04-05T01:33:36.353Z,12.57
2023-04-05T01:36:09.716Z,8.27
2023-04-05T01:38:40.839Z,12.07
2023-04-05T01:41:08.680Z,10.83
2023-04-05T01:43:36.269Z,9.63
2023-04-05T01:46:05.518Z,11.83
2023-04-05T01:48:33.455Z,8.70
2023-04-05T01:51:01.164Z,7.33
2023-04-05T01:53:28.801Z,9.03
2023-04-05T01:56:00.915Z,8.87
2023-04-05T01:58:28.716Z,8.00
2023-04-05T02:00:56.578Z,8.40
2023-04-05T02:03:25.847Z,8.77
2023-04-05T02:05:53.494Z,8.80
2023-04-05T02:08:21.100Z,6.70
2023-04-05T02:10:48.701Z,8.27
2023-04-05T02:13:16.426Z,6.40
2023-04-05T02:15:49.098Z,7.23
2023-04-05T02:18:21.749Z,5.83
2023-04-05T02:20:52.179Z,11.63
2023-04-05T02:23:20.900Z,8.57
2023-04-05T02:25:48.548Z,11.73
2023-04-05T02:28:16.472Z,8.73
2023-04-05T02:30:44.127Z,8.77
2023-04-05T02:33:12.634Z,7.60
2023-04-05T02:35:40.304Z,7.53
2023-04-05T02:38:09.472Z,6.83
2023-04-05T02:40:37.593Z,8.03
2023-04-05T02:43:05.361Z,8.77
2023-04-05T02:45:33.176Z,8.00
2023-04-05T02:48:00.997Z,8.40
2023-04-05T02:50:28.582Z,10.33
2023-04-05T02:52:56.366Z,11.80
2023-04-05T02:55:26.001Z,7.53
2023-04-05T02:57:53.586Z,11.57
2023-04-05T03:00:22.231Z,8.83
2023-04-05T03:02:50.447Z,11.73
2023-04-05T03:05:18.632Z,9.27
2023-04-05T03:07:46.792Z,6.83
2023-04-05T03:10:18.605Z,9.40
2023-04-05T03:12:47.613Z,11.50
2023-04-05T03:15:15.229Z,7.67
2023-04-05T03:17:44.219Z,7.97
2023-04-05T03:20:13.288Z,9.27
2023-04-05T03:22:41.642Z,9.40
2023-04-05T03:25:09.582Z,10.97
2023-04-05T03:27:38.362Z,7.97
2023-04-05T03:30:08.871Z,6.77
2023-04-05T03:32:36.509Z,9.60
2023-04-05T03:35:04.297Z,8.97
2023-04-05T03:37:31.979Z,10.73
2023-04-05T03:39:59.567Z,8.87
2023-04-05T03:42:27.194Z,14.93
2023-04-05T03:44:54.971Z,8.03
2023-04-05T03:47:23.940Z,9.87
2023-04-05T03:49:51.542Z,13.40
2023-04-05T03:52:19.177Z,9.30
2023-04-05T03:54:46.790Z,12.00
2023-04-05T03:57:14.452Z,10.60
2023-04-05T03:59:42.307Z,10.30
2023-04-05T04:02:09.985Z,8.20
2023-04-05T04:04:39.067Z,6.87
2023-04-05T04:07:06.776Z,11.73
2023-04-05T04:09:34.384Z,11.43
2023-04-05T04:12:01.973Z,7.70
2023-04-05T04:14:29.518Z,9.87
2023-04-05T04:16:57.270Z,9.20
2023-04-05T04:19:24.839Z,11.90
2023-04-05T04:21:55.996Z,15.53
2023-04-05T04:24:27.329Z,9.87
2023-04-05T04:26:55.474Z,10.13
2023-04-05T04:29:31.066Z,7.43
2023-04-05T04:31:58.695Z,10.80
2023-04-05T04:34:26.345Z,11.17
2023-04-05T04:37:01.393Z,8.93
2023-04-05T04:39:31.431Z,7.43
2023-04-05T04:41:59.332Z,7.10
2023-04-05T04:44:31.175Z,8.27
2023-04-05T04:46:59.233Z,11.00
2023-04-05T04:49:28.299Z,10.93
2023-04-05T04:51:59.369Z,8.40
2023-04-05T04:54:28.705Z,8.20
2023-04-05T04:56:57.333Z,6.97
2023-04-05T04:59:24.975Z,9.97
2023-04-05T05:01:52.632Z,12.23
2023-04-05T05:04:20.437Z,10.57
2023-04-05T05:06:50.957Z,10.23
2023-04-05T05:09:19.943Z,9.97
2023-04-05T05:11:47.624Z,9.57
2023-04-05T05:14:15.620Z,9.13
2023-04-05T05:16:43.272Z,8.57
2023-04-05T05:19:10.900Z,11.30
2023-04-05T05:21:38.607Z,10.87
2023-04-05T05:24:08.550Z,8.53
2023-04-05T05:26:38.041Z,18.17
2023-04-05T05:29:05.945Z,14.80
2023-04-05T05:31:33.871Z,9.67
2023-04-05T05:34:01.517Z,11.10
2023-04-05T05:36:29.250Z,10.33
2023-04-05T05:38:56.954Z,9.57
2023-04-05T05:41:25.688Z,10.80
2023-04-05T05:43:56.843Z,12.10
2023-04-05T05:46:24.635Z,12.63
2023-04-05T05:48:52.513Z,11.50
2023-04-05T05:51:20.762Z,9.90
2023-04-05T05:53:48.656Z,11.83
2023-04-05T05:56:16.409Z,7.70
2023-04-05T05:58:44.127Z,10.40
2023-04-05T06:01:14.432Z,12.10
2023-04-05T06:03:42.238Z,9.77
2023-04-05T06:06:11.129Z,9.70
2023-04-05T06:08:38.843Z,8.93
2023-04-05T06:11:06.586Z,10.70
2023-04-05T06:13:34.152Z,18.20
2023-04-05T06:16:02.576Z,20.67
2023-04-05T06:18:31.680Z,12.10
2023-04-05T06:20:59.294Z,8.40
2023-04-05T06:23:26.994Z,10.03
2023-04-05T06:25:56.785Z,8.57
2023-04-05T06:28:24.432Z,8.27
2023-04-05T06:30:52.023Z,8.50
2023-04-05T06:33:19.597Z,13.60
2023-04-05T06:35:48.579Z,11.00
2023-04-05T06:38:17.521Z,9.03
2023-04-05T06:40:45.325Z,9.83
2023-04-05T06:43:13.023Z,8.87
2023-04-05T06:45:40.995Z,7.73
2023-04-05T06:48:08.895Z,12.50
2023-04-05T06:50:36.514Z,9.30
2023-04-05T06:53:05.633Z,7.73
2023-04-05T06:55:33.387Z,11.77
2023-04-05T06:58:01.142Z,8.83
2023-04-05T07:00:28.761Z,8.50
2023-04-05T07:02:56.456Z,10.30
2023-04-05T07:05:24.069Z,9.77
2023-04-05T07:07:53.184Z,14.77
2023-04-05T07:10:22.225Z,10.67
2023-04-05T07:12:49.939Z,10.23
2023-04-05T07:15:17.727Z,8.77
2023-04-05T07:17:45.563Z,12.43
2023-04-05T07:20:13.708Z,13.33
2023-04-05T07:22:41.339Z,10.63
2023-04-05T07:25:10.509Z,12.03
2023-04-05T07:27:39.744Z,9.87
2023-04-05T07:30:08.755Z,12.10
2023-04-05T07:32:36.466Z,9.77
2023-04-05T07:35:04.207Z,10.73
2023-04-05T07:37:31.804Z,8.07
2023-04-05T07:39:59.571Z,10.03
2023-04-05T07:42:28.300Z,8.70
2023-04-05T07:44:57.413Z,9.93
2023-04-05T07:47:25.154Z,10.70
2023-04-05T07:49:52.842Z,7.27
2023-04-05T07:52:20.475Z,7.17
2023-04-05T07:54:49.946Z,7.57
2023-04-05T07:57:18.271Z,8.37
2023-04-05T07:59:46.224Z,7.63
2023-04-05T08:02:15.491Z,6.87
2023-04-05T08:04:43.196Z,7.40
2023-04-05T08:07:11.208Z,6.53
2023-04-05T08:09:39.067Z,7.27
2023-04-05T08:12:07.599Z,5.33
2023-04-05T08:14:35.322Z,10.57
2023-04-05T08:17:03.048Z,7.07
2023-04-05T08:19:32.177Z,11.17
2023-04-05T08:21:59.963Z,8.80
2023-04-05T08:24:27.633Z,7.27
2023-04-05T08:26:56.277Z,7.03
2023-04-05T08:29:24.174Z,7.13
2023-04-05T08:31:51.936Z,7.80
2023-04-05T08:34:19.851Z,6.97
2023-04-05T08:36:49.017Z,8.00
2023-04-05T08:39:16.888Z,6.20
2023-04-05T08:41:56.937Z,7.60
2023-04-05T08:44:27.433Z,4.33
2023-04-05T08:46:59.125Z,3.97
2023-04-05T08:49:27.107Z,5.03
2023-04-05T08:52:01.355Z,4.87
2023-04-05T08:54:29.246Z,6.23
2023-04-05T08:56:59.588Z,3.30
2023-04-05T08:59:28.368Z,3.33
2023-04-05T09:01:58.234Z,5.27
2023-04-05T09:04:31.242Z,4.90
2023-04-05T09:07:02.544Z,4.90
2023-04-05T09:09:34.763Z,4.30
2023-04-05T09:12:04.689Z,5.63
2023-04-05T09:14:35.184Z,2.50
2023-04-05T09:17:03.855Z,4.97
2023-04-05T09:19:31.834Z,3.95
2023-04-05T09:22:02.320Z,6.40
2023-04-05T09:24:35.326Z,2.25
2023-04-05T09:27:07.942Z,4.25
2023-04-05T09:29:36.228Z,4.72
2023-04-05T09:32:05.528Z,5.85
2023-04-05T09:34:36.791Z,3.53
2023-04-05T09:37:14.156Z,5.80
2023-04-05T09:39:41.780Z,4.70
2023-04-05T09:42:11.765Z,8.18
2023-04-05T09:44:53.198Z,4.72
2023-04-05T09:47:22.206Z,7.60
2023-04-05T09:49:50.373Z,5.22
2023-04-05T09:52:24.556Z,4.60
2023-04-05T09:54:56.013Z,4.22
2023-04-05T09:57:26.376Z,4.10
2023-04-05T09:59:54.473Z,4.35
2023-04-05T10:02:22.966Z,4.05
2023-04-05T10:04:50.790Z,5.18
2023-04-05T10:07:20.042Z,6.20
2023-04-05T10:09:49.615Z,5.97
2023-04-05T10:12:26.102Z,5.30
2023-04-05T10:14:53.776Z,7.10
2023-04-05T10:17:26.425Z,3.80
2023-04-05T10:20:03.686Z,4.57
2023-04-05T10:22:37.493Z,6.03
2023-04-05T10:25:22.427Z,4.43
2023-04-05T10:27:54.704Z,7.53
2023-04-05T10:30:25.652Z,5.78
2023-04-05T10:33:05.159Z,6.00
2023-04-05T10:35:39.839Z,2.97
2023-04-05T10:38:23.515Z,4.72
2023-04-05T10:40:58.243Z,4.88
2023-04-05T10:43:27.719Z,4.85
2023-04-05T10:45:56.181Z,5.43
2023-04-05T10:48:37.501Z,4.35
2023-04-05T10:51:05.780Z,4.68
2023-04-05T10:53:35.116Z,5.25
2023-04-05T10:56:04.655Z,7.20
2023-04-05T10:58:34.119Z,5.03
2023-04-05T11:01:02.267Z,2.38
2023-04-05T11:03:43.136Z,5.53
2023-04-05T11:06:25.386Z,3.03
2023-04-05T11:08:57.560Z,6.78
2023-04-05T11:11:27.719Z,3.13
2023-04-05T11:13:56.869Z,3.63
2023-04-05T11:16:40.537Z,9.30
2023-04-05T11:19:08.349Z,6.05
2023-04-05T11:21:36.317Z,4.80
2023-04-05T11:24:06.862Z,5.47
2023-04-05T11:26:54.809Z,20.50
2023-04-05T11:29:56.257Z,6.50
2023-04-05T11:32:24.654Z,5.78
2023-04-05T11:35:00.717Z,5.45
2023-04-05T11:38:06.732Z,8.00
2023-04-05T11:40:35.895Z,7.45
2023-04-05T11:43:08.756Z,6.60
2023-04-05T11:45:37.931Z,7.00
2023-04-05T11:48:07.280Z,6.00
2023-04-05T11:50:36.531Z,7.85
2023-04-05T11:53:14.847Z,6.63
2023-04-05T11:55:44.316Z,7.97
2023-04-05T11:58:18.535Z,4.50
2023-04-05T12:00:47.829Z,6.95
2023-04-05T12:03:16.706Z,6.72
2023-04-05T12:05:51.235Z,6.90
2023-04-05T12:08:19.202Z,6.30
2023-04-05T12:10:55.059Z,5.93
2023-04-05T12:13:31.731Z,8.60
2023-04-05T12:16:00.374Z,5.50
2023-04-05T12:18:29.699Z,12.23
2023-04-05T12:20:57.871Z,10.52
2023-04-05T12:23:26.759Z,6.38
2023-04-05T12:25:56.113Z,11.73
2023-04-05T12:28:23.853Z,5.95
2023-04-05T12:30:54.490Z,7.65
2023-04-05T12:33:29.194Z,6.72
2023-04-05T12:35:57.020Z,5.50
2023-04-05T12:38:27.959Z,7.22
2023-04-05T12:40:55.899Z,5.85
2023-04-05T12:43:23.902Z,8.65
2023-04-05T12:45:56.326Z,5.28
2023-04-05T12:48:25.987Z,8.10
2023-04-05T12:50:54.903Z,8.32
2023-04-05T12:53:25.411Z,5.93
2023-04-05T12:55:54.681Z,5.60
2023-04-05T12:58:24.035Z,5.50
2023-04-05T13:00:53.045Z,9.00
2023-04-05T13:03:22.562Z,6.53
2023-04-05T13:05:50.363Z,7.50
2023-04-05T13:08:18.441Z,8.45
2023-04-05T13:10:49.240Z,10.23
2023-04-05T13:13:18.308Z,7.60
2023-04-05T13:15:46.761Z,7.60
2023-04-05T13:18:16.494Z,9.05
2023-04-05T13:20:44.634Z,10.82
2023-04-05T13:23:12.847Z,9.88
2023-04-05T13:25:41.382Z,10.10
2023-04-05T13:28:10.422Z,10.68
2023-04-05T13:30:38.404Z,11.60
2023-04-05T13:33:06.117Z,7.57
2023-04-05T13:35:35.735Z,8.95
2023-04-05T13:38:04.786Z,7.78
2023-04-05T13:40:32.777Z,8.68
2023-04-05T13:43:00.628Z,7.78
2023-04-05T13:45:28.668Z,6.47
2023-04-05T13:47:56.861Z,8.65
2023-04-05T13:50:24.617Z,9.07
2023-04-05T13:52:53.603Z,8.52
2023-04-05T13:55:21.373Z,9.43
2023-04-05T13:57:49.203Z,7.88
2023-04-05T14:00:17.232Z,11.65
2023-04-05T14:02:45.385Z,9.95
2023-04-05T14:05:13.094Z,9.27
2023-04-05T14:07:40.886Z,7.07
2023-04-05T14:10:11.575Z,8.25
2023-04-05T14:12:39.295Z,8.40
2023-04-05T14:15:08.021Z,9.25
2023-04-05T14:17:35.778Z,5.78
2023-04-05T14:20:03.503Z,6.25
2023-04-05T14:22:31.420Z,9.85
2023-04-05T14:24:59.000Z,7.03
2023-04-05T14:27:28.437Z,8.40
2023-04-05T14:29:57.357Z,7.00
2023-04-05T14:32:26.564Z,9.43
2023-04-05T14:34:54.333Z,9.35
2023-04-05T14:37:22.020Z,7.53
2023-04-05T14:39:49.652Z,7.80
2023-04-05T14:42:17.348Z,7.32
2023-04-05T14:44:46.605Z,8.75
2023-04-05T14:47:14.292Z,8.98
2023-04-05T14:49:42.109Z,6.35
2023-04-05T14:52:09.943Z,10.07
2023-04-05T14:54:38.542Z,9.27
2023-04-05T14:57:06.159Z,8.40
2023-04-05T14:59:34.009Z,11.88
2023-04-05T15:02:03.120Z,7.10
2023-04-05T15:04:31.114Z,7.35
2023-04-05T15:06:58.794Z,7.60
2023-04-05T15:09:26.545Z,10.43
2023-04-05T15:11:55.514Z,8.93
2023-04-05T15:14:31.714Z,7.03
2023-04-05T15:17:00.171Z,7.95
2023-04-05T15:19:30.499Z,8.20
2023-04-05T15:21:58.218Z,8.55
2023-04-05T15:24:26.043Z,13.57
2023-04-05T15:26:53.840Z,9.43
2023-04-05T15:29:21.446Z,13.57
2023-04-05T15:31:49.151Z,11.63
2023-04-05T15:34:17.769Z,7.00
2023-04-05T15:36:49.103Z,11.07
2023-04-05T15:39:16.893Z,10.98
2023-04-05T15:41:44.835Z,9.23
2023-04-05T15:44:12.598Z,11.32
2023-04-05T15:46:40.524Z,11.30
2023-04-05T15:49:11.576Z,8.02
2023-04-05T15:51:41.035Z,10.25
2023-04-05T15:54:10.256Z,7.53
2023-04-05T15:56:38.360Z,8.30
2023-04-05T15:59:07.221Z,7.80
2023-04-05T16:01:34.970Z,6.70
2023-04-05T16:04:03.002Z,7.25
2023-04-05T16:06:31.354Z,8.85
2023-04-05T16:09:01.504Z,8.70
2023-04-05T16:11:30.656Z,5.88
2023-04-05T16:13:58.291Z,8.48
2023-04-05T16:16:38.789Z,7.25
2023-04-05T16:19:15.708Z,8.60
2023-04-05T16:21:43.578Z,12.55
2023-04-05T16:24:11.594Z,9.73
2023-04-05T16:26:42.273Z,9.50
2023-04-05T16:29:09.898Z,9.60
2023-04-05T16:31:38.331Z,8.43
2023-04-05T16:34:06.301Z,7.03
2023-04-05T16:36:34.225Z,8.93
2023-04-05T16:39:02.420Z,9.65
2023-04-05T16:41:30.267Z,8.07
2023-04-05T16:43:59.864Z,8.88
2023-04-05T16:46:30.628Z,8.18
2023-04-05T16:48:58.663Z,6.00
2023-04-05T16:51:26.578Z,9.20
2023-04-05T16:53:54.571Z,10.48
2023-04-05T16:56:22.845Z,8.93
2023-04-05T16:58:51.242Z,8.32
2023-04-05T17:01:20.686Z,9.30
2023-04-05T17:03:48.572Z,9.18
2023-04-05T17:06:16.664Z,7.75
2023-04-05T17:08:44.423Z,8.90
2023-04-05T17:11:12.193Z,10.48
2023-04-05T17:13:41.757Z,7.88
2023-04-05T17:16:09.485Z,8.88
2023-04-05T17:18:39.714Z,8.05
2023-04-05T17:21:07.870Z,9.30
2023-04-05T17:23:35.718Z,7.68
2023-04-05T17:26:03.690Z,8.40
2023-04-05T17:28:32.469Z,8.63
2023-04-05T17:31:00.921Z,7.60
2023-04-05T17:33:28.818Z,7.75
2023-04-05T17:36:00.455Z,7.97
2023-04-05T17:38:28.236Z,8.60
2023-04-05T17:40:57.252Z,7.78
2023-04-05T17:43:25.115Z,9.68
2023-04-05T17:45:55.324Z,7.22
2023-04-05T17:48:23.574Z,5.63
2023-04-05T17:50:52.299Z,8.70
2023-04-05T17:53:21.703Z,7.30
2023-04-05T17:55:49.408Z,8.95
2023-04-05T17:58:17.346Z,7.97
2023-04-05T18:00:45.202Z,7.35
2023-04-05T18:03:13.680Z,7.43
2023-04-05T18:05:41.418Z,8.38
2023-04-05T18:08:09.127Z,7.03
2023-04-05T18:10:38.140Z,8.73
2023-04-05T18:13:06.246Z,7.88
2023-04-05T18:15:34.054Z,8.65
2023-04-05T18:18:03.876Z,9.23
2023-04-05T18:20:31.620Z,6.95
2023-04-05T18:23:00.296Z,6.68
2023-04-05T18:25:32.142Z,8.05
2023-04-05T18:28:12.160Z,6.90
2023-04-05T18:30:56.848Z,8.18
2023-04-05T18:33:29.369Z,9.02
2023-04-05T18:35:57.188Z,7.93
2023-04-05T18:38:24.951Z,9.10
2023-04-05T18:41:02.700Z,11.55
2023-04-05T18:43:32.068Z,10.93
2023-04-05T18:45:59.984Z,10.18
2023-04-05T18:48:27.635Z,11.82
2023-04-05T18:50:55.653Z,13.43
2023-04-05T18:53:24.058Z,9.75
2023-04-05T18:55:52.186Z,9.77
2023-04-05T18:58:21.769Z,12.90
2023-04-05T19:00:51.522Z,14.40
2023-04-05T19:03:19.430Z,13.85
2023-04-05T19:05:51.588Z,12.40
2023-04-05T19:08:19.967Z,13.88
2023-04-05T19:10:50.580Z,15.73
2023-04-05T19:13:18.591Z,14.18
2023-04-05T19:15:47.025Z,14.75
2023-04-05T19:18:16.026Z,14.23
2023-04-05T19:20:48.136Z,9.55
2023-04-05T19:23:16.109Z,12.05
2023-04-05T19:25:44.385Z,11.48
2023-04-05T19:28:12.387Z,13.10
2023-04-05T19:30:40.359Z,10.73
2023-04-05T19:33:11.060Z,9.55
2023-04-05T19:35:41.335Z,11.15
2023-04-05T19:38:09.282Z,14.85
2023-04-05T19:40:38.991Z,11.98
2023-04-05T19:43:08.662Z,9.75
2023-04-05T19:45:37.795Z,9.93
2023-04-05T19:48:25.482Z,13.32
2023-04-05T19:50:59.508Z,11.32
2023-04-05T19:53:41.751Z,10.20
2023-04-05T19:56:12.057Z,11.50
2023-04-05T19:58:40.505Z,7.97
2023-04-05T20:01:08.973Z,11.88
2023-04-05T20:03:38.203Z,12.77
2023-04-05T20:06:09.687Z,10.20
2023-04-05T20:08:39.356Z,9.55
2023-04-05T20:11:09.953Z,12.27
2023-04-05T20:13:42.750Z,15.30
2023-04-05T20:16:13.315Z,10.85
2023-04-05T20:18:51.106Z,10.00
2023-04-05T20:21:21.716Z,12.32
2023-04-05T20:23:52.443Z,10.68
2023-04-05T20:26:26.397Z,15.68
2023-04-05T20:28:58.320Z,12.43
2023-04-05T20:31:29.582Z,12.18
2023-04-05T20:33:59.115Z,10.70
2023-04-05T20:36:34.578Z,11.10
2023-04-05T20:39:03.919Z,11.52
2023-04-05T20:41:32.330Z,15.93
2023-04-05T20:44:00.783Z,11.98
2023-04-05T20:46:32.479Z,11.63
2023-04-05T20:49:16.224Z,8.77
2023-04-05T20:51:51.199Z,10.70
2023-04-05T20:54:21.085Z,13.55
2023-04-05T20:56:49.064Z,15.20
2023-04-05T20:59:17.204Z,13.63
2023-04-05T21:01:47.149Z,11.10
2023-04-05T21:04:15.277Z,10.68
2023-04-05T21:06:44.200Z,11.95
2023-04-05T21:09:13.176Z,12.20
2023-04-05T21:11:40.978Z,12.68
2023-04-05T21:14:09.352Z,12.60
2023-04-05T21:16:37.494Z,18.80
2023-04-05T21:19:05.602Z,12.48
2023-04-05T21:21:33.307Z,14.20
2023-04-05T21:24:01.022Z,13.60
2023-04-05T21:26:31.055Z,10.45
2023-04-05T21:28:58.664Z,11.05
2023-04-05T21:31:27.009Z,10.45
2023-04-05T21:33:54.751Z,14.20
2023-04-05T21:36:22.363Z,12.68
2023-04-05T21:38:49.982Z,12.20
2023-04-05T21:41:17.546Z,12.50
2023-04-05T21:43:46.506Z,15.20
2023-04-05T21:46:14.177Z,13.18
2023-04-05T21:48:41.764Z,11.05
2023-04-05T21:51:09.540Z,11.77
2023-04-05T21:53:37.127Z,12.23
2023-04-05T21:56:05.359Z,11.60
2023-04-05T21:58:33.033Z,11.93
2023-04-05T22:01:01.995Z,12.07
2023-04-05T22:03:29.694Z,13.15
2023-04-05T22:05:57.414Z,14.57
2023-04-05T22:08:26.666Z,12.48
2023-04-05T22:10:54.474Z,12.18
2023-04-05T22:13:22.078Z,12.07
2023-04-05T22:15:49.752Z,12.82
2023-04-05T22:18:18.653Z,16.50
2023-04-05T22:20:46.273Z,12.98
2023-04-05T22:23:13.913Z,14.57
2023-04-05T22:25:41.787Z,17.50
2023-04-05T22:28:09.567Z,16.17
2023-04-05T22:33:08.429Z,16.50
2023-04-05T22:35:37.482Z,13.73
2023-04-05T22:38:05.319Z,16.30
2023-04-05T22:40:32.996Z,17.95
2023-04-05T22:43:00.740Z,15.70
2023-04-05T22:45:28.704Z,26.95
2023-04-05T22:47:56.824Z,30.43
2023-04-05T22:50:24.589Z,31.98
2023-04-05T22:52:53.629Z,35.15
2023-04-05T22:55:21.458Z,28.53
2023-04-05T22:57:49.716Z,25.37
2023-04-05T23:00:17.818Z,28.17
2023-04-05T23:02:45.596Z,23.13
2023-04-05T23:05:13.612Z,21.43
2023-04-05T23:07:41.259Z,24.60
2023-04-05T23:10:11.459Z,24.80
2023-04-05T23:12:39.072Z,22.23
2023-04-05T23:15:07.811Z,21.30
2023-04-05T23:17:35.506Z,16.77
2023-04-05T23:20:05.813Z,20.27
2023-04-05T23:22:33.600Z,17.27
2023-04-05T23:25:02.298Z,19.90
2023-04-05T23:27:31.891Z,14.70
2023-04-05T23:29:59.488Z,16.77
2023-04-05T23:32:27.083Z,22.20
2023-04-05T23:34:54.741Z,16.63
2023-04-05T23:37:22.367Z,16.57
2023-04-05T23:39:49.937Z,16.80
2023-04-05T23:42:17.606Z,16.67
2023-04-05T23:44:46.554Z,16.53
2023-04-05T23:47:14.173Z,14.80
2023-04-05T23:49:41.892Z,15.37
2023-04-05T23:52:09.558Z,18.00
2023-04-05T23:54:37.202Z,14.77
2023-04-05T23:57:05.033Z,14.17
2023-04-05T23:59:32.648Z,15.10
